createdAt,value
2019-02-17T00:01:41.165Z,19.20
2019-02-17T00:04:12.718Z,17.07
2019-02-17T00:06:44.235Z,18.53
2019-02-17T00:09:15.899Z,17.63
2019-02-17T00:11:47.544Z,18.57
2019-02-17T00:14:19.113Z,16.40
2019-02-17T00:16:50.784Z,21.23
2019-02-17T00:19:22.240Z,17.30
2019-02-17T00:21:53.908Z,20.50
2019-02-17T00:24:26.746Z,21.03
2019-02-17T00:26:58.334Z,16.83
2019-02-17T00:29:29.946Z,15.00
2019-02-17T00:32:01.326Z,15.77
2019-02-17T00:34:32.949Z,18.03
2019-02-17T00:37:04.541Z,15.47
2019-02-17T00:39:36.167Z,15.47
2019-02-17T00:42:07.680Z,14.03
2019-02-17T00:44:40.644Z,13.10
2019-02-17T00:47:12.110Z,13.57
2019-02-17T00:49:43.824Z,13.57
2019-02-17T00:52:15.414Z,13.97
2019-02-17T00:54:47.102Z,12.40
2019-02-17T00:57:18.536Z,12.27
2019-02-17T00:59:50.166Z,12.77
2019-02-17T01:02:21.731Z,12.43
2019-02-17T01:04:53.398Z,12.63
2019-02-17T01:07:24.959Z,12.93
2019-02-17T01:09:56.570Z,12.57
2019-02-17T01:12:28.156Z,11.37
2019-02-17T01:14:59.631Z,12.07
2019-02-17T01:17:31.185Z,12.50
2019-02-17T01:20:02.727Z,12.13
2019-02-17T01:22:34.440Z,11.63
2019-02-17T01:25:06.124Z,12.57
2019-02-17T01:27:37.796Z,12.37
2019-02-17T01:30:09.800Z,13.53
2019-02-17T01:32:41.415Z,12.23
2019-02-17T01:35:13.074Z,11.77
2019-02-17T01:37:44.658Z,11.93
2019-02-17T01:40:16.215Z,12.07
2019-02-17T01:42:47.891Z,12.03
2019-02-17T01:45:19.510Z,12.57
2019-02-17T01:47:51.107Z,11.93
2019-02-17T01:50:25.631Z,11.40
2019-02-17T01:52:57.336Z,12.40
2019-02-17T01:55:28.999Z,11.20
2019-02-17T01:58:03.481Z,10.90
2019-02-17T02:00:35.144Z,11.83
2019-02-17T02:03:06.769Z,10.87
2019-02-17T02:05:38.260Z,12.07
2019-02-17T02:08:09.893Z,10.77
2019-02-17T02:10:41.553Z,11.40
2019-02-17T02:13:13.889Z,11.23
2019-02-17T02:15:45.530Z,11.87
2019-02-17T02:18:18.125Z,11.00
2019-02-17T02:20:49.787Z,11.63
2019-02-17T02:23:22.603Z,11.70
2019-02-17T02:25:54.263Z,11.13
2019-02-17T02:28:25.752Z,11.10
2019-02-17T02:30:57.439Z,11.40
2019-02-17T02:33:28.939Z,11.03
2019-02-17T02:36:03.299Z,11.93
2019-02-17T02:38:34.955Z,11.80
2019-02-17T02:41:06.643Z,11.73
2019-02-17T02:43:39.428Z,11.07
2019-02-17T02:46:11.015Z,11.30
2019-02-17T02:48:42.531Z,11.43
2019-02-17T02:51:14.140Z,10.80
2019-02-17T02:53:45.850Z,11.87
2019-02-17T02:56:17.751Z,11.23
2019-02-17T02:58:49.341Z,11.13
2019-02-17T03:01:21.040Z,11.03
2019-02-17T03:03:52.577Z,10.63
2019-02-17T03:06:45.781Z,10.83
2019-02-17T03:09:19.306Z,10.73
2019-02-17T03:11:50.956Z,11.07
2019-02-17T03:14:22.588Z,11.33
2019-02-17T03:16:55.375Z,10.73
2019-02-17T03:19:26.994Z,11.73
2019-02-17T03:21:58.472Z,11.13
2019-02-17T03:24:30.216Z,11.17
2019-02-17T03:27:01.775Z,11.70
2019-02-17T03:29:33.258Z,10.37
2019-02-17T03:32:04.861Z,11.47
2019-02-17T03:34:36.639Z,10.33
2019-02-17T03:37:08.179Z,11.07
2019-02-17T03:39:39.832Z,10.00
2019-02-17T03:42:11.463Z,12.00
2019-02-17T03:44:43.145Z,11.77
2019-02-17T03:47:14.808Z,11.00
2019-02-17T03:49:46.272Z,10.63
2019-02-17T03:52:18.060Z,11.30
2019-02-17T03:54:51.024Z,12.00
2019-02-17T03:57:22.741Z,11.50
2019-02-17T03:59:55.944Z,11.13
2019-02-17T04:02:27.706Z,10.93
2019-02-17T04:04:59.224Z,11.63
2019-02-17T04:07:30.857Z,11.00
2019-02-17T04:10:02.675Z,12.17
2019-02-17T04:12:34.339Z,11.77
2019-02-17T04:15:06.243Z,11.50
2019-02-17T04:17:37.836Z,11.87
2019-02-17T04:20:11.806Z,11.60
2019-02-17T04:22:43.469Z,11.57
2019-02-17T04:25:15.175Z,10.07
2019-02-17T04:27:48.429Z,11.47
2019-02-17T04:30:28.819Z,10.67
2019-02-17T04:32:53.225Z,11.27
2019-02-17T04:35:24.829Z,12.83
2019-02-17T04:37:58.860Z,12.93
2019-02-17T04:40:31.576Z,12.47
2019-02-17T04:43:03.198Z,12.93
2019-02-17T04:45:34.805Z,12.27
2019-02-17T04:48:06.368Z,12.63
2019-02-17T04:50:38.477Z,13.40
2019-02-17T04:53:10.047Z,12.67
2019-02-17T04:55:41.715Z,14.10
2019-02-17T04:58:13.481Z,13.67
2019-02-17T05:00:44.925Z,14.57
2019-02-17T05:03:18.053Z,13.33
2019-02-17T05:05:49.640Z,13.97
2019-02-17T05:08:23.460Z,14.40
2019-02-17T05:10:54.977Z,14.27
2019-02-17T05:13:26.568Z,13.00
2019-02-17T05:15:58.058Z,13.27
2019-02-17T05:18:29.577Z,13.77
2019-02-17T05:21:01.193Z,14.33
2019-02-17T05:23:32.830Z,14.00
2019-02-17T05:26:04.453Z,13.60
2019-02-17T05:28:36.124Z,14.57
2019-02-17T05:31:10.004Z,12.93
2019-02-17T05:33:41.832Z,13.30
2019-02-17T05:36:13.532Z,14.20
2019-02-17T05:38:45.052Z,14.00
2019-02-17T05:41:16.601Z,14.10
2019-02-17T05:43:48.081Z,14.07
2019-02-17T05:46:19.698Z,13.20
2019-02-17T05:48:52.668Z,14.43
2019-02-17T05:51:24.391Z,12.90
2019-02-17T05:53:55.961Z,14.73
2019-02-17T05:56:27.661Z,14.00
2019-02-17T05:59:00.860Z,13.43
2019-02-17T06:01:32.461Z,13.60
2019-02-17T06:04:03.987Z,14.77
2019-02-17T06:06:36.919Z,13.77
2019-02-17T06:09:08.607Z,14.57
2019-02-17T06:11:42.881Z,14.47
2019-02-17T06:14:14.405Z,13.87
2019-02-17T06:16:46.002Z,15.43
2019-02-17T06:19:17.897Z,12.50
2019-02-17T06:21:49.726Z,13.63
2019-02-17T06:24:21.218Z,14.13
2019-02-17T06:26:52.913Z,15.40
2019-02-17T06:29:24.454Z,15.83
2019-02-17T06:31:59.305Z,14.60
2019-02-17T06:34:30.889Z,14.73
2019-02-17T06:37:06.487Z,14.23
2019-02-17T06:39:38.036Z,14.07
2019-02-17T06:42:09.712Z,13.80
2019-02-17T06:44:41.435Z,14.50
2019-02-17T06:47:18.336Z,14.80
2019-02-17T06:49:50.029Z,13.30
2019-02-17T06:52:24.259Z,28.50
2019-02-17T06:55:07.750Z,22.00
2019-02-17T06:57:41.102Z,14.47
2019-02-17T07:00:37.391Z,13.80
2019-02-17T07:03:09.061Z,13.80
2019-02-17T07:05:47.367Z,13.80
2019-02-17T07:08:18.984Z,15.03
2019-02-17T07:10:55.050Z,14.17
2019-02-17T07:13:26.627Z,13.83
2019-02-17T07:15:58.311Z,13.60
2019-02-17T07:18:32.091Z,16.17
2019-02-17T07:21:03.215Z,14.87
2019-02-17T07:23:39.825Z,15.20
2019-02-17T07:26:11.533Z,15.30
2019-02-17T07:28:43.029Z,14.97
2019-02-17T07:31:14.713Z,14.37
2019-02-17T07:33:46.310Z,15.90
2019-02-17T07:36:17.964Z,14.77
2019-02-17T07:38:49.553Z,15.43
2019-02-17T07:41:21.217Z,14.53
2019-02-17T07:43:52.752Z,15.07
2019-02-17T07:46:24.539Z,14.87
2019-02-17T07:48:58.873Z,15.67
2019-02-17T07:51:30.479Z,14.83
2019-02-17T07:54:02.075Z,15.53
2019-02-17T07:56:33.659Z,15.27
2019-02-17T07:59:05.259Z,15.90
2019-02-17T08:01:45.025Z,15.27
2019-02-17T08:04:10.094Z,17.43
2019-02-17T08:06:41.826Z,15.80
2019-02-17T08:09:13.395Z,14.97
2019-02-17T08:11:44.966Z,15.93
2019-02-17T08:14:16.724Z,16.30
2019-02-17T08:16:48.410Z,16.23
2019-02-17T08:19:19.902Z,14.67
2019-02-17T08:21:56.543Z,15.30
2019-02-17T08:24:27.779Z,16.07
2019-02-17T08:26:59.439Z,15.40
2019-02-17T08:29:32.639Z,13.70
2019-02-17T08:32:04.130Z,14.87
2019-02-17T08:34:37.009Z,13.37
2019-02-17T08:37:08.772Z,14.13
2019-02-17T08:39:40.431Z,16.17
2019-02-17T08:42:12.191Z,15.63
2019-02-17T08:44:43.713Z,15.27
2019-02-17T08:47:15.407Z,15.63
2019-02-17T08:49:48.143Z,15.03
2019-02-17T08:52:19.713Z,15.73
2019-02-17T08:54:51.353Z,14.77
2019-02-17T08:57:25.155Z,14.50
2019-02-17T08:59:56.842Z,15.00
2019-02-17T09:02:28.427Z,15.67
2019-02-17T09:05:02.978Z,14.53
2019-02-17T09:07:34.639Z,15.67
2019-02-17T09:10:09.524Z,15.87
2019-02-17T09:12:43.569Z,15.23
2019-02-17T09:15:15.321Z,15.53
2019-02-17T09:17:46.899Z,16.10
2019-02-17T09:20:21.553Z,29.63
2019-02-17T09:22:56.058Z,16.03
2019-02-17T09:25:27.579Z,16.33
2019-02-17T09:28:00.568Z,15.87
2019-02-17T09:30:32.218Z,15.37
2019-02-17T09:33:06.561Z,15.70
2019-02-17T09:35:38.302Z,15.60
2019-02-17T09:38:09.997Z,15.10
2019-02-17T09:40:43.243Z,14.57
2019-02-17T09:43:14.852Z,15.93
2019-02-17T09:45:48.010Z,16.63
2019-02-17T09:48:19.813Z,15.70
2019-02-17T09:50:51.371Z,16.13
2019-02-17T09:53:23.072Z,14.70
2019-02-17T09:55:55.203Z,15.37
2019-02-17T09:58:27.001Z,16.10
2019-02-17T10:00:58.559Z,16.00
2019-02-17T10:03:30.191Z,15.23
2019-02-17T10:06:04.648Z,15.97
2019-02-17T10:08:36.310Z,17.00
2019-02-17T10:11:07.948Z,16.13
2019-02-17T10:13:39.657Z,16.30
2019-02-17T10:16:11.239Z,15.50
2019-02-17T10:18:42.874Z,14.97
2019-02-17T10:21:14.370Z,16.13
2019-02-17T10:23:46.010Z,14.77
2019-02-17T10:26:17.629Z,15.57
2019-02-17T10:28:49.160Z,15.10
2019-02-17T10:31:20.655Z,15.30
2019-02-17T10:33:52.378Z,14.80
2019-02-17T10:36:23.950Z,16.33
2019-02-17T10:38:55.624Z,14.67
2019-02-17T10:41:27.350Z,14.37
2019-02-17T10:43:59.143Z,14.27
2019-02-17T10:46:30.667Z,15.00
2019-02-17T10:49:02.339Z,14.30
2019-02-17T10:51:36.749Z,14.60
2019-02-17T10:54:08.551Z,13.37
2019-02-17T10:56:40.225Z,14.77
2019-02-17T10:59:11.814Z,13.30
2019-02-17T11:01:43.480Z,13.40
2019-02-17T11:04:15.194Z,13.80
2019-02-17T11:06:46.824Z,12.60
2019-02-17T11:09:22.181Z,13.33
2019-02-17T11:11:54.072Z,12.97
2019-02-17T11:14:25.813Z,12.70
2019-02-17T11:16:57.359Z,13.97
2019-02-17T11:19:29.021Z,14.90
2019-02-17T11:22:00.561Z,14.07
2019-02-17T11:24:32.345Z,13.83
2019-02-17T11:27:05.223Z,13.53
2019-02-17T11:29:36.922Z,11.77
2019-02-17T11:32:08.648Z,12.50
2019-02-17T11:34:41.767Z,13.20
2019-02-17T11:37:13.483Z,14.83
2019-02-17T11:39:45.101Z,12.60
2019-02-17T11:42:16.775Z,13.53
2019-02-17T11:44:48.330Z,17.67
2019-02-17T11:47:19.915Z,13.40
2019-02-17T11:49:51.472Z,13.83
2019-02-17T11:52:23.160Z,17.43
2019-02-17T11:54:54.599Z,12.80
2019-02-17T11:57:26.155Z,13.37
2019-02-17T11:59:57.802Z,13.87
2019-02-17T12:02:29.533Z,13.90
2019-02-17T12:05:02.291Z,12.80
2019-02-17T12:07:33.985Z,12.70
2019-02-17T12:10:05.761Z,14.00
2019-02-17T12:12:37.440Z,14.10
2019-02-17T12:15:10.333Z,12.07
2019-02-17T12:17:42.050Z,16.60
2019-02-17T12:20:50.745Z,14.33
2019-02-17T12:23:27.138Z,15.50
2019-02-17T12:26:08.251Z,12.30
2019-02-17T12:28:59.998Z,11.57
2019-02-17T12:31:35.974Z,14.93
2019-02-17T12:34:07.426Z,12.03
2019-02-17T12:36:39.144Z,11.20
2019-02-17T12:39:11.408Z,10.33
2019-02-17T12:41:43.102Z,10.50
2019-02-17T12:44:16.835Z,10.43
2019-02-17T12:46:48.393Z,9.67
2019-02-17T12:49:19.995Z,10.60
2019-02-17T12:51:51.627Z,10.67
2019-02-17T12:54:29.052Z,9.60
2019-02-17T12:56:59.697Z,10.90
2019-02-17T12:59:31.336Z,9.43
2019-02-17T13:02:02.823Z,11.80
2019-02-17T13:04:34.408Z,12.67
2019-02-17T13:07:05.995Z,12.40
2019-02-17T13:09:39.145Z,11.03
2019-02-17T13:12:10.627Z,11.27
2019-02-17T13:14:42.222Z,11.37
2019-02-17T13:17:13.915Z,10.43
2019-02-17T13:19:45.558Z,8.90
2019-02-17T13:22:17.189Z,9.17
2019-02-17T13:24:48.950Z,10.70
2019-02-17T13:27:20.630Z,11.33
2019-02-17T13:29:52.319Z,9.50
2019-02-17T13:32:24.013Z,11.40
2019-02-17T13:34:55.703Z,11.27
2019-02-17T13:37:27.313Z,11.77
2019-02-17T13:39:58.987Z,11.43
2019-02-17T13:42:30.611Z,10.90
2019-02-17T13:45:02.188Z,9.93
2019-02-17T13:47:33.961Z,10.20
2019-02-17T13:50:06.021Z,10.80
2019-02-17T13:52:37.606Z,9.97
2019-02-17T13:55:09.769Z,10.03
2019-02-17T13:57:41.399Z,9.63
2019-02-17T14:00:15.142Z,10.93
2019-02-17T14:02:46.648Z,10.27
2019-02-17T14:05:18.278Z,9.23
2019-02-17T14:07:49.867Z,25.70
2019-02-17T14:10:21.443Z,14.63
2019-02-17T14:12:53.040Z,14.70
2019-02-17T14:15:27.294Z,15.43
2019-02-17T14:17:58.906Z,10.37
2019-02-17T14:20:30.599Z,9.50
2019-02-17T14:23:02.278Z,8.30
2019-02-17T14:25:34.045Z,9.57
2019-02-17T14:28:05.616Z,9.90
2019-02-17T14:30:37.301Z,9.63
2019-02-17T14:33:08.949Z,10.93
2019-02-17T14:35:40.586Z,8.77
2019-02-17T14:38:12.193Z,9.47
2019-02-17T14:40:46.513Z,10.60
2019-02-17T14:43:18.049Z,9.93
2019-02-17T14:45:49.630Z,11.90
2019-02-17T14:48:23.641Z,10.27
2019-02-17T14:50:55.225Z,10.50
2019-02-17T14:53:26.830Z,9.40
2019-02-17T14:55:58.390Z,37.70
2019-02-17T14:58:30.320Z,15.03
2019-02-17T15:01:02.009Z,11.87
2019-02-17T15:03:34.759Z,11.37
2019-02-17T15:06:08.676Z,11.37
2019-02-17T15:08:40.188Z,30.73
2019-02-17T15:11:20.608Z,12.17
2019-02-17T15:13:52.242Z,11.47
2019-02-17T15:16:23.922Z,10.83
2019-02-17T15:18:55.966Z,11.30
2019-02-17T15:21:30.051Z,11.23
2019-02-17T15:24:04.531Z,18.30
2019-02-17T15:26:36.041Z,12.23
2019-02-17T15:29:07.697Z,10.33
2019-02-17T15:31:39.460Z,10.97
2019-02-17T15:34:18.525Z,22.23
2019-02-17T15:36:45.949Z,13.63
2019-02-17T15:39:17.646Z,20.23
2019-02-17T15:41:49.238Z,21.03
2019-02-17T15:44:20.823Z,17.07
2019-02-17T15:46:52.469Z,21.57
2019-02-17T15:49:24.127Z,31.13
2019-02-17T15:51:55.687Z,47.87
2019-02-17T15:54:27.329Z,39.97
2019-02-17T15:56:58.923Z,83.80
2019-02-17T15:59:30.660Z,63.87
2019-02-17T16:02:02.308Z,67.53
2019-02-17T16:04:33.947Z,86.43
2019-02-17T16:07:05.622Z,118.97
2019-02-17T16:09:40.474Z,106.93
2019-02-17T16:12:14.448Z,88.33
2019-02-17T16:14:48.380Z,136.10
2019-02-17T16:17:20.195Z,175.57
2019-02-17T16:19:51.863Z,179.87
2019-02-17T16:22:23.511Z,148.90
2019-02-17T16:24:55.115Z,130.73
2019-02-17T16:27:26.672Z,168.67
2019-02-17T16:29:58.405Z,136.33
2019-02-17T16:32:30.113Z,155.03
2019-02-17T16:35:01.700Z,196.33
2019-02-17T16:37:33.422Z,115.47
2019-02-17T16:40:04.986Z,109.57
2019-02-17T16:42:36.611Z,92.20
2019-02-17T16:45:09.725Z,100.27
2019-02-17T16:47:41.422Z,170.33
2019-02-17T16:50:15.773Z,92.23
2019-02-17T16:52:47.448Z,116.30
2019-02-17T16:55:18.970Z,96.47
2019-02-17T16:57:50.660Z,86.90
2019-02-17T17:00:25.640Z,121.50
2019-02-17T17:02:59.429Z,114.00
2019-02-17T17:05:31.069Z,120.40
2019-02-17T17:08:02.752Z,214.23
2019-02-17T17:10:34.538Z,329.57
2019-02-17T17:13:06.217Z,107.47
2019-02-17T17:15:37.875Z,84.13
2019-02-17T17:18:09.493Z,64.57
2019-02-17T17:20:41.174Z,74.77
2019-02-17T17:23:14.373Z,71.13
2019-02-17T17:25:46.134Z,88.07
2019-02-17T17:28:18.592Z,83.10
2019-02-17T17:30:50.271Z,101.30
2019-02-17T17:33:21.941Z,42.87
2019-02-17T17:35:53.631Z,32.37
2019-02-17T17:38:25.183Z,42.30
2019-02-17T17:40:56.830Z,29.27
2019-02-17T17:43:28.406Z,18.87
2019-02-17T17:45:59.879Z,19.20
2019-02-17T17:48:33.689Z,18.43
2019-02-17T17:51:07.838Z,14.37
2019-02-17T17:53:39.589Z,18.33
2019-02-17T17:56:11.100Z,18.37
2019-02-17T17:58:42.717Z,21.23
2019-02-17T18:01:14.333Z,27.07
2019-02-17T18:03:47.482Z,33.90
2019-02-17T18:06:19.137Z,52.93
2019-02-17T18:08:50.771Z,48.20
2019-02-17T18:11:22.280Z,41.80
2019-02-17T18:13:54.057Z,24.47
2019-02-17T18:16:25.779Z,25.80
2019-02-17T18:18:58.540Z,22.77
2019-02-17T18:21:30.266Z,21.23
2019-02-17T18:24:01.755Z,16.83
2019-02-17T18:26:33.404Z,15.67
2019-02-17T18:29:04.992Z,19.03
2019-02-17T18:31:36.743Z,20.93
2019-02-17T18:34:10.529Z,76.13
2019-02-17T18:36:42.083Z,98.50
2019-02-17T18:39:13.834Z,22.13
2019-02-17T18:41:45.471Z,16.40
2019-02-17T18:44:17.051Z,32.63
2019-02-17T18:46:51.738Z,22.13
2019-02-17T18:49:23.278Z,17.27
2019-02-17T18:51:54.994Z,17.43
2019-02-17T18:54:26.735Z,16.17
2019-02-17T18:57:07.816Z,14.87
2019-02-17T18:59:31.817Z,15.73
2019-02-17T19:02:03.305Z,23.10
2019-02-17T19:04:34.994Z,30.93
2019-02-17T19:07:06.485Z,17.77
2019-02-17T19:09:38.157Z,15.20
2019-02-17T19:12:09.944Z,14.23
2019-02-17T19:14:41.557Z,14.87
2019-02-17T19:17:13.232Z,14.17
2019-02-17T19:19:45.179Z,14.97
2019-02-17T19:22:16.970Z,16.37
2019-02-17T19:24:48.644Z,15.23
2019-02-17T19:27:22.580Z,15.60
2019-02-17T19:29:54.162Z,16.33
2019-02-17T19:32:25.817Z,19.90
2019-02-17T19:34:58.527Z,21.83
2019-02-17T19:37:30.210Z,18.57
2019-02-17T19:40:01.890Z,32.93
2019-02-17T19:42:34.750Z,26.23
2019-02-17T19:45:06.600Z,35.90
2019-02-17T19:47:38.140Z,35.50
2019-02-17T19:50:11.122Z,65.00
2019-02-17T19:52:42.739Z,47.40
2019-02-17T19:55:15.646Z,76.90
2019-02-17T19:57:48.380Z,39.10
2019-02-17T20:00:19.888Z,36.47
2019-02-17T20:03:16.033Z,58.23
2019-02-17T20:05:52.443Z,38.53
2019-02-17T20:08:24.150Z,44.77
2019-02-17T20:10:55.938Z,40.93
2019-02-17T20:13:28.729Z,31.87
2019-02-17T20:16:00.326Z,21.67
2019-02-17T20:18:31.922Z,22.17
2019-02-17T20:21:03.500Z,19.90
2019-02-17T20:23:35.007Z,19.67
2019-02-17T20:26:06.660Z,19.00
2019-02-17T20:28:43.666Z,21.00
2019-02-17T20:31:14.493Z,20.70
2019-02-17T20:33:46.141Z,19.77
2019-02-17T20:36:18.621Z,23.17
2019-02-17T20:38:50.240Z,23.60
2019-02-17T20:41:21.775Z,24.77
2019-02-17T20:43:53.348Z,21.17
2019-02-17T20:46:24.912Z,20.73
2019-02-17T20:48:56.545Z,27.60
2019-02-17T20:51:33.566Z,21.50
2019-02-17T20:54:05.168Z,21.27
2019-02-17T20:56:36.778Z,23.93
2019-02-17T20:59:08.437Z,20.10
2019-02-17T21:01:39.984Z,19.83
2019-02-17T21:04:11.561Z,19.40
2019-02-17T21:06:43.048Z,20.23
2019-02-17T21:09:14.767Z,35.97
2019-02-17T21:11:46.357Z,35.13
2019-02-17T21:14:17.927Z,25.27
2019-02-17T21:16:49.469Z,23.57
2019-02-17T21:19:21.046Z,21.43
2019-02-17T21:21:52.630Z,21.90
2019-02-17T21:24:24.287Z,21.43
2019-02-17T21:26:55.829Z,19.43
2019-02-17T21:29:27.342Z,26.53
2019-02-17T21:31:58.903Z,27.73
2019-02-17T21:34:30.549Z,21.17
2019-02-17T21:37:04.549Z,19.00
2019-02-17T21:39:36.170Z,22.67
2019-02-17T21:42:07.712Z,20.73
2019-02-17T21:44:39.456Z,19.83
2019-02-17T21:47:11.040Z,17.67
2019-02-17T21:49:42.670Z,19.80
2019-02-17T21:52:14.215Z,18.20
2019-02-17T21:54:45.898Z,20.63
2019-02-17T21:57:17.538Z,17.57
2019-02-17T21:59:49.229Z,20.93
2019-02-17T22:02:21.958Z,19.73
2019-02-17T22:04:53.592Z,21.87
2019-02-17T22:07:25.213Z,22.13
2019-02-17T22:10:00.578Z,17.87
2019-02-17T22:12:31.464Z,15.97
2019-02-17T22:15:03.146Z,14.83
2019-02-17T22:17:34.949Z,14.63
2019-02-17T22:20:07.056Z,15.33
2019-02-17T22:22:38.586Z,15.87
2019-02-17T22:25:10.387Z,15.97
2019-02-17T22:27:41.933Z,15.57
2019-02-17T22:30:15.401Z,15.63
2019-02-17T22:32:47.054Z,20.80
2019-02-17T22:35:18.656Z,18.80
2019-02-17T22:37:50.243Z,20.87
2019-02-17T22:40:24.321Z,20.70
2019-02-17T22:42:55.821Z,19.00
2019-02-17T22:45:27.374Z,18.20
2019-02-17T22:48:01.614Z,17.53
2019-02-17T22:50:33.328Z,16.57
2019-02-17T22:53:04.875Z,15.90
2019-02-17T22:55:36.418Z,17.07
2019-02-17T22:58:08.134Z,16.37
2019-02-17T23:00:58.879Z,15.13
2019-02-17T23:03:32.816Z,16.17
2019-02-17T23:06:04.517Z,16.37
2019-02-17T23:08:36.173Z,16.83
2019-02-17T23:11:10.476Z,15.90
2019-02-17T23:13:42.140Z,16.53
2019-02-17T23:16:13.636Z,15.50
2019-02-17T23:18:45.305Z,16.60
2019-02-17T23:21:16.964Z,16.17
2019-02-17T23:23:48.674Z,15.47
2019-02-17T23:26:23.279Z,15.40
2019-02-17T23:28:55.107Z,15.50
2019-02-17T23:31:28.073Z,16.60
2019-02-17T23:33:59.780Z,15.73
2019-02-17T23:36:33.615Z,16.03
2019-02-17T23:39:06.221Z,15.53
2019-02-17T23:41:38.911Z,16.13
2019-02-17T23:44:11.856Z,16.50
2019-02-17T23:46:43.487Z,16.23
2019-02-17T23:49:15.116Z,15.80
2019-02-17T23:51:46.565Z,16.97
2019-02-17T23:54:18.327Z,16.80
2019-02-17T23:56:51.521Z,17.40
2019-02-17T23:59:23.233Z,16.57
